createdAt,value
2023-01-31T00:00:55.825Z,1.52
2023-01-31T00:03:26.320Z,1.52
2023-01-31T00:05:56.609Z,1.23
2023-01-31T00:08:33.132Z,1.38
2023-01-31T00:11:03.407Z,1.63
2023-01-31T00:13:33.745Z,1.33
2023-01-31T00:16:04.748Z,1.10
2023-01-31T00:18:35.995Z,1.33
2023-01-31T00:21:14.835Z,1.20
2023-01-31T00:23:46.319Z,1.30
2023-01-31T00:26:36.023Z,1.58
2023-01-31T00:29:07.792Z,1.60
2023-01-31T00:31:38.947Z,1.30
2023-01-31T00:34:09.946Z,1.40
2023-01-31T00:36:40.202Z,1.20
2023-01-31T00:39:11.479Z,1.50
2023-01-31T00:41:42.117Z,1.70
2023-01-31T00:44:12.383Z,1.55
2023-01-31T00:46:42.636Z,1.40
2023-01-31T00:49:12.875Z,1.20
2023-01-31T00:51:43.131Z,1.27
2023-01-31T00:54:13.608Z,1.35
2023-01-31T00:56:44.490Z,1.20
2023-01-31T00:59:14.791Z,1.48
2023-01-31T01:01:45.338Z,1.38
2023-01-31T01:04:15.707Z,1.50
2023-01-31T01:06:45.966Z,1.48
2023-01-31T01:09:16.202Z,1.63
2023-01-31T01:11:46.463Z,1.55
2023-01-31T01:14:17.109Z,1.30
2023-01-31T01:16:47.412Z,1.50
2023-01-31T01:19:22.275Z,1.65
2023-01-31T01:21:52.479Z,1.42
2023-01-31T01:24:22.956Z,1.60
2023-01-31T01:26:53.351Z,1.60
2023-01-31T01:29:23.813Z,1.48
2023-01-31T01:31:54.770Z,1.30
2023-01-31T01:34:25.223Z,1.40
2023-01-31T01:36:55.566Z,1.10
2023-01-31T01:39:26.210Z,1.50
2023-01-31T01:41:57.701Z,1.33
2023-01-31T01:44:49.003Z,1.40
2023-01-31T01:47:43.208Z,1.38
2023-01-31T01:50:32.198Z,1.30
2023-01-31T01:53:05.439Z,1.30
2023-01-31T01:55:39.739Z,1.23
2023-01-31T01:58:32.725Z,1.33
2023-01-31T02:01:03.585Z,1.08
2023-01-31T02:03:33.877Z,1.35
2023-01-31T02:06:08.641Z,1.55
2023-01-31T02:08:41.305Z,1.42
2023-01-31T02:11:20.755Z,1.02
2023-01-31T02:13:54.491Z,1.52
2023-01-31T02:16:24.993Z,1.42
2023-01-31T02:18:55.414Z,1.35
2023-01-31T02:21:43.920Z,1.45
2023-01-31T02:25:04.346Z,1.35
2023-01-31T02:27:56.631Z,1.60
2023-01-31T02:31:01.762Z,1.45
2023-01-31T02:34:00.464Z,1.30
2023-01-31T02:36:48.871Z,1.30
2023-01-31T02:39:49.094Z,1.20
2023-01-31T02:42:28.665Z,1.10
2023-01-31T02:45:12.996Z,1.58
2023-01-31T02:48:02.982Z,1.17
2023-01-31T02:50:47.573Z,1.10
2023-01-31T02:53:33.032Z,1.50
2023-01-31T02:56:22.448Z,1.25
2023-01-31T02:59:05.000Z,1.60
2023-01-31T03:01:42.610Z,1.33
2023-01-31T03:04:15.383Z,1.42
2023-01-31T03:07:18.805Z,1.35
2023-01-31T03:10:13.047Z,2.05
2023-01-31T03:13:02.151Z,1.50
2023-01-31T03:16:09.342Z,1.17
2023-01-31T03:18:52.151Z,1.45
2023-01-31T03:21:29.745Z,1.60
2023-01-31T03:24:01.918Z,1.48
2023-01-31T03:26:32.775Z,1.85
2023-01-31T03:29:06.001Z,1.50
2023-01-31T03:31:46.438Z,1.55
2023-01-31T03:34:19.665Z,1.73
2023-01-31T03:36:57.532Z,1.55
2023-01-31T03:39:58.436Z,1.20
2023-01-31T03:42:45.864Z,1.45
2023-01-31T03:45:38.694Z,1.38
2023-01-31T03:48:16.528Z,1.50
2023-01-31T03:50:55.646Z,1.35
2023-01-31T03:53:38.567Z,1.50
2023-01-31T03:56:20.560Z,1.85
2023-01-31T03:58:58.777Z,1.42
2023-01-31T04:01:37.276Z,1.50
2023-01-31T04:04:34.492Z,1.48
2023-01-31T04:07:05.424Z,1.75
2023-01-31T04:09:36.794Z,1.35
2023-01-31T04:12:08.220Z,1.33
2023-01-31T04:14:38.451Z,1.63
2023-01-31T04:17:08.627Z,1.20
2023-01-31T04:19:38.822Z,1.42
2023-01-31T04:22:09.096Z,1.63
2023-01-31T04:24:39.319Z,1.30
2023-01-31T04:27:09.932Z,1.40
2023-01-31T04:29:40.197Z,1.42
2023-01-31T04:32:13.695Z,1.17
2023-01-31T04:34:44.062Z,1.42
2023-01-31T04:37:14.275Z,1.30
2023-01-31T04:39:44.472Z,1.40
2023-01-31T04:42:14.929Z,1.60
2023-01-31T04:44:45.164Z,1.60
2023-01-31T04:47:15.524Z,1.30
2023-01-31T04:49:45.926Z,1.48
2023-01-31T04:52:16.441Z,1.60
2023-01-31T04:54:46.671Z,1.33
2023-01-31T04:57:16.896Z,1.52
2023-01-31T04:59:47.122Z,1.30
2023-01-31T05:02:17.763Z,1.45
2023-01-31T05:04:48.793Z,1.77
2023-01-31T05:07:19.363Z,1.52
2023-01-31T05:09:49.698Z,1.40
2023-01-31T05:12:20.079Z,1.42
2023-01-31T05:14:50.373Z,1.58
2023-01-31T05:17:27.673Z,1.40
2023-01-31T05:19:58.586Z,1.70
2023-01-31T05:22:29.297Z,1.58
2023-01-31T05:24:59.617Z,1.65
2023-01-31T05:27:30.094Z,1.30
2023-01-31T05:30:02.317Z,1.50
2023-01-31T05:32:33.279Z,1.52
2023-01-31T05:35:03.714Z,1.40
2023-01-31T05:37:34.158Z,1.58
2023-01-31T05:40:04.431Z,1.33
2023-01-31T05:42:34.865Z,1.23
2023-01-31T05:45:05.429Z,1.50
2023-01-31T05:47:35.999Z,1.60
2023-01-31T05:50:07.162Z,1.52
2023-01-31T05:52:37.629Z,1.65
2023-01-31T05:55:08.839Z,1.27
2023-01-31T05:57:39.576Z,1.70
2023-01-31T06:00:10.650Z,1.45
2023-01-31T06:02:41.422Z,1.25
2023-01-31T06:05:13.579Z,1.95
2023-01-31T06:07:44.548Z,1.60
2023-01-31T06:10:15.379Z,1.40
2023-01-31T06:12:45.704Z,1.70
2023-01-31T06:15:15.995Z,1.58
2023-01-31T06:17:46.234Z,1.73
2023-01-31T06:20:16.529Z,1.60
2023-01-31T06:22:46.940Z,1.52
2023-01-31T06:25:17.366Z,1.60
2023-01-31T06:27:47.822Z,1.90
2023-01-31T06:30:18.198Z,1.50
2023-01-31T06:32:48.539Z,1.75
2023-01-31T06:35:19.178Z,1.73
2023-01-31T06:37:49.912Z,1.30
2023-01-31T06:40:20.361Z,1.60
2023-01-31T06:42:50.947Z,1.58
2023-01-31T06:45:21.592Z,1.63
2023-01-31T06:47:52.890Z,1.90
2023-01-31T06:50:23.137Z,1.77
2023-01-31T06:52:53.332Z,1.52
2023-01-31T06:55:23.552Z,1.40
2023-01-31T06:57:53.829Z,1.52
2023-01-31T07:00:26.433Z,1.50
2023-01-31T07:02:57.619Z,1.55
2023-01-31T07:05:27.858Z,1.77
2023-01-31T07:07:59.033Z,1.83
2023-01-31T07:10:29.463Z,1.48
2023-01-31T07:12:59.816Z,2.00
2023-01-31T07:15:30.225Z,1.80
2023-01-31T07:18:01.868Z,1.60
2023-01-31T07:20:32.317Z,1.80
2023-01-31T07:23:03.079Z,1.90
2023-01-31T07:25:36.460Z,1.65
2023-01-31T07:28:07.186Z,1.65
2023-01-31T07:30:37.590Z,2.03
2023-01-31T07:33:08.814Z,1.77
2023-01-31T07:35:39.035Z,2.00
2023-01-31T07:38:10.485Z,1.77
2023-01-31T07:40:41.883Z,1.70
2023-01-31T07:43:12.229Z,1.90
2023-01-31T07:45:44.430Z,1.65
2023-01-31T07:48:15.353Z,1.55
2023-01-31T07:50:46.106Z,1.88
2023-01-31T07:53:16.378Z,2.03
2023-01-31T07:55:49.468Z,1.45
2023-01-31T07:58:20.175Z,1.58
2023-01-31T08:01:08.408Z,1.95
2023-01-31T08:03:38.994Z,1.60
2023-01-31T08:06:14.585Z,1.95
2023-01-31T08:08:46.512Z,1.42
2023-01-31T08:11:17.021Z,1.80
2023-01-31T08:13:47.596Z,1.20
2023-01-31T08:16:18.109Z,1.35
2023-01-31T08:18:48.597Z,1.52
2023-01-31T08:21:19.699Z,2.13
2023-01-31T08:23:50.330Z,1.77
2023-01-31T08:26:22.414Z,1.88
2023-01-31T08:28:55.631Z,1.60
2023-01-31T08:31:27.625Z,1.95
2023-01-31T08:33:59.510Z,1.45
2023-01-31T08:36:33.916Z,1.60
2023-01-31T08:39:04.792Z,2.13
2023-01-31T08:41:36.661Z,2.05
2023-01-31T08:44:08.316Z,2.78
2023-01-31T08:46:39.822Z,1.70
2023-01-31T08:49:11.878Z,2.28
2023-01-31T08:51:42.076Z,1.70
2023-01-31T08:54:14.708Z,1.70
2023-01-31T08:56:45.120Z,1.33
2023-01-31T08:59:15.552Z,1.40
2023-01-31T09:01:48.264Z,1.52
2023-01-31T09:04:18.525Z,1.42
2023-01-31T09:06:48.812Z,1.40
2023-01-31T09:09:20.213Z,1.42
2023-01-31T09:11:50.766Z,1.58
2023-01-31T09:14:21.267Z,1.20
2023-01-31T09:16:51.492Z,1.40
2023-01-31T09:19:22.515Z,1.33
2023-01-31T09:21:52.927Z,1.42
2023-01-31T09:24:23.388Z,1.27
2023-01-31T09:26:55.917Z,1.23
2023-01-31T09:29:26.310Z,1.13
2023-01-31T09:31:56.692Z,1.55
2023-01-31T09:34:27.343Z,1.50
2023-01-31T09:36:59.430Z,1.77
2023-01-31T09:39:29.929Z,1.60
2023-01-31T09:42:12.772Z,1.73
2023-01-31T09:44:46.467Z,1.55
2023-01-31T09:47:40.291Z,1.50
2023-01-31T09:50:50.353Z,1.17
2023-01-31T09:53:26.211Z,1.30
2023-01-31T09:56:12.337Z,1.20
2023-01-31T09:58:59.332Z,1.08
2023-01-31T10:02:14.933Z,1.20
2023-01-31T10:04:56.961Z,1.40
2023-01-31T10:07:54.122Z,1.20
2023-01-31T10:10:36.635Z,1.35
2023-01-31T10:13:18.434Z,1.10
2023-01-31T10:16:24.282Z,1.88
2023-01-31T10:19:06.436Z,1.33
2023-01-31T10:21:44.571Z,1.30
2023-01-31T10:24:25.657Z,1.35
2023-01-31T10:27:02.969Z,1.42
2023-01-31T10:29:43.393Z,1.38
2023-01-31T10:32:37.979Z,1.27
2023-01-31T10:35:32.788Z,1.40
2023-01-31T10:38:28.891Z,1.30
2023-01-31T10:41:12.691Z,1.40
2023-01-31T10:43:52.226Z,2.00
2023-01-31T10:46:22.991Z,1.48
2023-01-31T10:48:53.244Z,1.40
2023-01-31T10:51:41.133Z,1.50
2023-01-31T10:54:14.614Z,1.50
2023-01-31T10:56:50.164Z,1.27
2023-01-31T10:59:37.496Z,1.48
2023-01-31T11:02:17.271Z,1.30
2023-01-31T11:04:47.724Z,1.55
2023-01-31T11:07:18.009Z,1.38
2023-01-31T11:09:56.080Z,1.40
2023-01-31T11:12:45.096Z,1.42
2023-01-31T11:15:20.962Z,1.20
2023-01-31T11:17:52.356Z,1.15
2023-01-31T11:20:36.221Z,1.50
2023-01-31T11:23:09.308Z,1.20
2023-01-31T11:25:39.788Z,1.27
2023-01-31T11:28:37.341Z,1.50
2023-01-31T11:31:24.022Z,1.48
2023-01-31T11:34:02.999Z,1.27
2023-01-31T11:36:43.931Z,1.45
2023-01-31T11:39:39.965Z,1.33
2023-01-31T11:42:16.135Z,1.20
2023-01-31T11:45:18.559Z,1.10
2023-01-31T11:48:01.097Z,1.35
2023-01-31T11:50:45.511Z,1.25
2023-01-31T11:53:45.948Z,1.35
2023-01-31T11:56:33.296Z,1.20
2023-01-31T11:59:11.404Z,1.02
2023-01-31T12:01:50.263Z,1.27
2023-01-31T12:04:37.097Z,1.27
2023-01-31T12:07:22.831Z,1.40
2023-01-31T12:09:53.398Z,1.25
2023-01-31T12:12:37.792Z,1.15
2023-01-31T12:15:19.166Z,1.40
2023-01-31T12:17:53.173Z,1.20
2023-01-31T12:21:05.386Z,1.67
2023-01-31T12:23:51.715Z,1.00
2023-01-31T12:26:29.113Z,1.60
2023-01-31T12:29:09.625Z,1.40
2023-01-31T12:32:05.247Z,1.38
2023-01-31T12:35:06.786Z,1.20
2023-01-31T12:38:00.437Z,1.38
2023-01-31T12:40:58.066Z,1.30
2023-01-31T12:44:01.351Z,1.25
2023-01-31T12:47:11.002Z,1.33
2023-01-31T12:49:47.981Z,1.30
2023-01-31T12:52:51.793Z,1.10
2023-01-31T12:55:40.609Z,1.20
2023-01-31T12:58:21.165Z,1.33
2023-01-31T13:01:17.276Z,1.00
2023-01-31T13:04:05.871Z,1.30
2023-01-31T13:06:54.061Z,0.77
2023-01-31T13:09:30.188Z,1.10
2023-01-31T13:12:18.075Z,1.20
2023-01-31T13:14:54.089Z,1.20
2023-01-31T13:17:30.340Z,0.95
2023-01-31T13:20:24.394Z,0.95
2023-01-31T13:23:06.283Z,0.95
2023-01-31T13:25:45.981Z,1.20
2023-01-31T13:28:28.524Z,1.10
2023-01-31T13:31:12.234Z,1.30
2023-01-31T13:33:53.894Z,1.05
2023-01-31T13:36:46.950Z,1.02
2023-01-31T13:39:45.738Z,0.93
2023-01-31T13:42:19.886Z,0.82
2023-01-31T13:44:51.827Z,1.00
2023-01-31T13:47:32.406Z,1.17
2023-01-31T13:50:09.925Z,1.10
2023-01-31T13:52:51.391Z,0.93
2023-01-31T13:55:43.024Z,1.20
2023-01-31T13:58:27.048Z,0.95
2023-01-31T14:01:04.692Z,1.35
2023-01-31T14:04:12.779Z,0.90
2023-01-31T14:07:19.803Z,1.27
2023-01-31T14:09:52.988Z,1.08
2023-01-31T14:12:23.388Z,1.00
2023-01-31T14:14:58.667Z,0.82
2023-01-31T14:17:32.672Z,1.10
2023-01-31T14:20:29.052Z,0.93
2023-01-31T14:23:32.780Z,1.08
2023-01-31T14:26:03.282Z,1.10
2023-01-31T14:28:33.817Z,1.10
2023-01-31T14:31:15.124Z,1.10
2023-01-31T14:33:50.306Z,1.08
2023-01-31T14:36:26.778Z,0.95
2023-01-31T14:39:32.064Z,1.02
2023-01-31T14:42:19.928Z,0.90
2023-01-31T14:45:05.903Z,0.80
2023-01-31T14:47:42.690Z,1.10
2023-01-31T14:50:40.209Z,1.10
2023-01-31T14:53:28.840Z,1.00
2023-01-31T14:56:23.329Z,1.00
2023-01-31T14:58:54.019Z,0.90
2023-01-31T15:01:33.447Z,1.00
2023-01-31T15:04:05.456Z,1.00
2023-01-31T15:06:45.474Z,1.00
2023-01-31T15:09:29.759Z,0.90
2023-01-31T15:12:01.004Z,1.05
2023-01-31T15:14:50.991Z,0.98
2023-01-31T15:17:37.530Z,1.00
2023-01-31T15:20:22.305Z,0.75
2023-01-31T15:22:55.178Z,0.93
2023-01-31T15:25:46.003Z,1.08
2023-01-31T15:28:23.773Z,0.90
2023-01-31T15:30:54.775Z,0.93
2023-01-31T15:33:45.923Z,0.82
2023-01-31T15:36:28.589Z,1.00
2023-01-31T15:39:20.991Z,0.95
2023-01-31T15:41:51.268Z,1.00
2023-01-31T15:44:31.896Z,0.82
2023-01-31T15:47:05.271Z,1.05
2023-01-31T15:49:43.153Z,0.75
2023-01-31T15:52:21.366Z,1.00
2023-01-31T15:54:59.950Z,1.00
2023-01-31T15:58:08.627Z,0.90
2023-01-31T16:00:40.500Z,1.00
2023-01-31T16:03:21.019Z,0.90
2023-01-31T16:05:56.529Z,1.10
2023-01-31T16:08:33.023Z,0.98
2023-01-31T16:11:13.299Z,0.90
2023-01-31T16:13:45.345Z,0.73
2023-01-31T16:16:16.322Z,0.90
2023-01-31T16:18:55.012Z,0.80
2023-01-31T16:21:34.629Z,0.95
2023-01-31T16:24:12.284Z,1.10
2023-01-31T16:26:50.425Z,0.75
2023-01-31T16:29:22.971Z,1.08
2023-01-31T16:31:55.588Z,0.80
2023-01-31T16:34:40.426Z,0.77
2023-01-31T16:37:14.260Z,0.80
2023-01-31T16:39:52.560Z,0.90
2023-01-31T16:42:25.409Z,0.80
2023-01-31T16:44:56.037Z,0.85
2023-01-31T16:47:36.221Z,0.85
2023-01-31T16:50:32.750Z,0.88
2023-01-31T16:53:34.928Z,1.05
2023-01-31T16:56:24.403Z,0.82
2023-01-31T16:58:59.970Z,0.90
2023-01-31T17:01:35.594Z,1.00
2023-01-31T17:04:20.773Z,0.90
2023-01-31T17:07:09.621Z,0.95
2023-01-31T17:09:39.990Z,0.85
2023-01-31T17:12:19.169Z,0.90
2023-01-31T17:14:49.973Z,0.90
2023-01-31T17:17:22.172Z,0.80
2023-01-31T17:19:52.566Z,1.10
2023-01-31T17:22:24.392Z,0.90
2023-01-31T17:24:54.821Z,0.80
2023-01-31T17:27:25.662Z,1.15
2023-01-31T17:29:55.947Z,0.80
2023-01-31T17:32:26.245Z,1.17
2023-01-31T17:34:56.562Z,0.90
2023-01-31T17:37:31.699Z,0.82
2023-01-31T17:40:02.622Z,0.98
2023-01-31T17:42:32.870Z,0.63
2023-01-31T17:45:04.045Z,0.80
2023-01-31T17:47:34.389Z,0.70
2023-01-31T17:50:04.551Z,0.80
2023-01-31T17:52:34.798Z,0.88
2023-01-31T17:55:05.141Z,0.90
2023-01-31T17:57:36.600Z,0.80
2023-01-31T18:00:08.617Z,0.80
2023-01-31T18:02:39.550Z,0.90
2023-01-31T18:05:10.418Z,0.95
2023-01-31T18:07:41.023Z,0.90
2023-01-31T18:10:12.597Z,0.80
2023-01-31T18:12:42.903Z,0.88
2023-01-31T18:15:14.024Z,0.98
2023-01-31T18:17:44.352Z,0.70
2023-01-31T18:20:14.687Z,0.70
2023-01-31T18:22:45.180Z,0.90
2023-01-31T18:25:15.854Z,0.60
2023-01-31T18:27:46.171Z,0.70
2023-01-31T18:30:16.751Z,1.00
2023-01-31T18:32:47.272Z,0.93
2023-01-31T18:35:17.513Z,0.60
2023-01-31T18:37:47.768Z,0.90
2023-01-31T18:40:18.160Z,0.80
2023-01-31T18:42:48.709Z,0.90
2023-01-31T18:45:19.845Z,0.88
2023-01-31T18:47:50.293Z,0.77
2023-01-31T18:50:21.280Z,1.10
2023-01-31T18:52:51.784Z,0.77
2023-01-31T18:55:22.538Z,0.73
2023-01-31T18:57:53.399Z,0.85
2023-01-31T19:00:24.360Z,0.80
2023-01-31T19:02:56.428Z,0.93
2023-01-31T19:05:27.346Z,0.80
2023-01-31T19:07:57.810Z,0.60
2023-01-31T19:10:28.150Z,0.60
2023-01-31T19:12:58.454Z,0.80
2023-01-31T19:15:28.653Z,0.80
2023-01-31T19:17:59.387Z,0.90
2023-01-31T19:20:29.641Z,0.85
2023-01-31T19:23:01.013Z,0.70
2023-01-31T19:25:31.207Z,0.50
2023-01-31T19:28:02.804Z,1.08
2023-01-31T19:30:33.467Z,0.77
2023-01-31T19:33:03.763Z,0.90
2023-01-31T19:35:34.275Z,0.90
2023-01-31T19:38:04.990Z,0.80
2023-01-31T19:40:35.224Z,0.80
2023-01-31T19:43:05.623Z,0.90
2023-01-31T19:45:35.908Z,0.82
2023-01-31T19:48:06.522Z,0.70
2023-01-31T19:50:37.765Z,0.70
2023-01-31T19:53:08.083Z,0.70
2023-01-31T19:55:38.567Z,0.88
2023-01-31T19:58:08.863Z,0.70
2023-01-31T20:00:39.085Z,0.60
2023-01-31T20:03:09.618Z,0.95
2023-01-31T20:05:41.323Z,0.80
2023-01-31T20:08:13.764Z,0.65
2023-01-31T20:10:43.945Z,0.90
2023-01-31T20:13:14.209Z,0.80
2023-01-31T20:15:44.447Z,0.80
2023-01-31T20:18:15.066Z,0.60
2023-01-31T20:20:47.536Z,0.77
2023-01-31T20:23:17.880Z,0.82
2023-01-31T20:25:54.054Z,0.95
2023-01-31T20:28:25.361Z,0.77
2023-01-31T20:30:56.225Z,0.73
2023-01-31T20:33:26.763Z,0.80
2023-01-31T20:35:56.960Z,0.73
2023-01-31T20:38:30.216Z,1.00
2023-01-31T20:41:00.673Z,0.75
2023-01-31T20:43:31.129Z,1.00
2023-01-31T20:46:09.881Z,0.68
2023-01-31T20:48:40.781Z,0.82
2023-01-31T20:51:11.747Z,0.90
2023-01-31T20:53:42.128Z,0.73
2023-01-31T20:56:13.409Z,0.68
2023-01-31T20:58:45.047Z,0.60
2023-01-31T21:01:15.644Z,0.60
2023-01-31T21:03:46.148Z,0.75
2023-01-31T21:06:16.449Z,0.70
2023-01-31T21:08:48.457Z,0.50
2023-01-31T21:11:18.895Z,0.70
2023-01-31T21:13:49.925Z,0.80
2023-01-31T21:16:20.346Z,0.70
2023-01-31T21:18:50.857Z,0.70
2023-01-31T21:21:25.668Z,0.80
2023-01-31T21:23:59.053Z,0.82
2023-01-31T21:26:29.815Z,0.82
2023-01-31T21:29:03.913Z,0.80
2023-01-31T21:31:35.604Z,0.90
2023-01-31T21:34:08.205Z,0.63
2023-01-31T21:36:38.514Z,0.65
2023-01-31T21:39:08.995Z,0.50
2023-01-31T21:41:57.488Z,0.85
2023-01-31T21:44:27.885Z,0.70
2023-01-31T21:46:58.193Z,0.85
2023-01-31T21:49:28.488Z,0.70
2023-01-31T21:51:58.736Z,0.70
2023-01-31T21:54:29.397Z,0.90
2023-01-31T21:57:00.578Z,1.00
2023-01-31T21:59:31.138Z,0.60
2023-01-31T22:02:02.009Z,0.70
2023-01-31T22:04:32.538Z,0.90
2023-01-31T22:07:03.107Z,0.90
2023-01-31T22:09:33.555Z,0.73
2023-01-31T22:12:04.040Z,0.98
2023-01-31T22:14:34.571Z,0.60
2023-01-31T22:17:05.038Z,0.80
2023-01-31T22:19:36.056Z,1.08
2023-01-31T22:22:06.511Z,0.90
2023-01-31T22:24:37.128Z,0.70
2023-01-31T22:27:07.467Z,0.80
2023-01-31T22:29:37.969Z,0.90
2023-01-31T22:32:08.683Z,1.05
2023-01-31T22:34:39.136Z,1.00
2023-01-31T22:37:09.409Z,1.23
2023-01-31T22:39:39.736Z,0.95
2023-01-31T22:42:09.952Z,1.10
2023-01-31T22:44:40.264Z,0.93
2023-01-31T22:47:10.432Z,0.90
2023-01-31T22:49:40.664Z,0.90
2023-01-31T22:52:10.858Z,1.15
2023-01-31T22:54:41.036Z,0.88
2023-01-31T22:57:11.313Z,1.23
2023-01-31T22:59:41.602Z,1.00
2023-01-31T23:02:11.879Z,1.25
2023-01-31T23:04:42.130Z,1.08
2023-01-31T23:07:12.411Z,0.80
2023-01-31T23:09:42.665Z,1.02
2023-01-31T23:12:12.902Z,1.30
2023-01-31T23:14:43.370Z,1.10
2023-01-31T23:17:31.419Z,1.45
2023-01-31T23:20:01.688Z,1.27
2023-01-31T23:22:31.914Z,1.42
2023-01-31T23:25:02.280Z,1.63
2023-01-31T23:27:32.576Z,1.83
2023-01-31T23:30:02.905Z,1.65
2023-01-31T23:32:33.248Z,1.75
2023-01-31T23:35:03.713Z,1.73
2023-01-31T23:37:34.235Z,2.03
2023-01-31T23:40:05.470Z,1.88
2023-01-31T23:42:35.773Z,1.67
2023-01-31T23:45:06.311Z,1.95
2023-01-31T23:47:36.750Z,2.30
2023-01-31T23:50:07.294Z,1.50
2023-01-31T23:52:37.771Z,1.88
2023-01-31T23:55:08.771Z,2.00
2023-01-31T23:57:39.309Z,1.63
